Time;durP1;ratioP1;P1;durP2;ratioP2;P2;SDS_P1;SDS_P2;PMS_P1;PMS_P2;Temp;Humidity;BMP_temperature;BMP_pressure;BME280_temperature;BME280_humidity;BME280_pressure;Samples;Min_cycle;Max_cycle;Signal;HPM_P1;HPM_P2
2023/06/13 00:00:35;;;;;;;5.40;3.10;;;;;;;23.19;39.15;100128.00;107955;1254;68852;-67
2023/06/13 00:03:05;;;;;;;5.30;3.00;;;;;;;22.87;39.33;100132.45;107927;1258;71470;-68
2023/06/13 00:05:33;;;;;;;5.90;2.40;;;;;;;22.72;39.91;100128.55;107915;1256;60458;-66
2023/06/13 00:08:00;;;;;;;8.90;2.80;;;;;;;22.84;39.78;100125.69;107933;1260;59684;-67
2023/06/13 00:10:27;;;;;;;10.90;3.10;;;;;;;22.75;39.81;100125.03;107939;1254;71948;-67
2023/06/13 00:12:55;;;;;;;6.70;2.90;;;;;;;22.95;39.49;100120.27;107910;1254;70120;-67
2023/06/13 00:15:23;;;;;;;6.30;2.90;;;;;;;22.99;39.35;100120.59;107918;1259;72696;-66
2023/06/13 00:17:50;;;;;;;6.70;2.10;;;;;;;23.04;39.20;100118.55;107906;1260;60399;-67
2023/06/13 00:20:18;;;;;;;6.40;2.90;;;;;;;22.97;39.16;100120.25;107930;1254;60432;-68
2023/06/13 00:22:45;;;;;;;10.80;3.40;;;;;;;22.92;39.21;100118.58;108083;1255;72959;-66
2023/06/13 00:25:12;;;;;;;6.60;2.60;;;;;;;22.96;39.18;100111.41;108076;1259;70116;-66
2023/06/13 00:27:51;;;;;;;4.70;2.40;;;;;;;22.83;39.28;100114.47;108024;1257;71373;-66
2023/06/13 00:30:22;;;;;;;4.90;2.60;;;;;;;22.86;39.29;100111.53;108064;1254;61945;-68
2023/06/13 00:32:54;;;;;;;8.60;2.60;;;;;;;22.85;39.21;100115.60;108062;1254;60084;-67
2023/06/13 00:35:22;;;;;;;6.90;2.80;;;;;;;22.81;39.21;100113.10;108075;1255;73239;-68
2023/06/13 00:37:54;;;;;;;6.40;2.60;;;;;;;23.05;39.00;100103.30;108053;1259;70774;-67
2023/06/13 00:40:21;;;;;;;6.30;2.80;;;;;;;23.29;38.54;100103.79;108011;1254;72432;-66
2023/06/13 00:42:57;;;;;;;7.90;3.00;;;;;;;23.29;38.34;100101.45;107943;1258;62059;-66
2023/06/13 00:45:27;;;;;;;8.30;2.50;;;;;;;23.14;38.39;100093.49;108013;1254;60180;-66
2023/06/13 00:48:02;;;;;;;6.10;2.50;;;;;;;23.07;38.60;100093.23;107967;1254;71801;-67
2023/06/13 00:50:36;;;;;;;5.90;2.50;;;;;;;23.15;38.49;100096.61;108004;1255;69571;-65
2023/06/13 00:53:16;;;;;;;7.90;2.60;;;;;;;23.11;38.54;100093.73;108019;1257;70432;-67
2023/06/13 00:55:45;;;;;;;6.30;2.60;;;;;;;23.40;38.02;100095.48;108095;1254;60383;-68
2023/06/13 00:58:13;;;;;;;6.70;2.70;;;;;;;23.39;38.18;100093.80;108094;1254;59996;-66
2023/06/13 01:00:43;;;;;;;8.40;2.90;;;;;;;23.43;38.03;100089.84;108025;1254;73027;-66
2023/06/13 01:03:15;;;;;;;10.10;2.80;;;;;;;23.29;38.19;100086.09;107914;1254;70114;-66
2023/06/13 01:05:46;;;;;;;8.30;2.60;;;;;;;23.36;37.95;100084.89;107892;1257;72765;-67
2023/06/13 01:08:21;;;;;;;6.30;2.70;;;;;;;23.50;37.68;100083.42;107963;1254;62159;-66
2023/06/13 01:10:59;;;;;;;3.40;2.40;;;;;;;23.28;37.88;100081.86;108028;1253;59153;-66
2023/06/13 01:13:33;;;;;;;7.00;2.60;;;;;;;23.19;38.26;100080.32;108025;1254;70907;-65
2023/06/13 01:16:05;;;;;;;3.80;2.20;;;;;;;22.98;38.43;100081.87;108136;1256;70308;-66
2023/06/13 01:18:35;;;;;;;4.10;2.70;;;;;;;22.96;38.59;100079.85;108053;1254;72705;-66
2023/06/13 01:21:04;;;;;;;5.60;2.70;;;;;;;22.83;38.91;100083.37;108018;1258;62224;-65
2023/06/13 01:23:36;;;;;;;8.30;3.00;;;;;;;22.82;38.85;100079.89;107923;1254;59020;-66
2023/06/13 01:26:16;;;;;;;10.20;2.70;;;;;;;23.10;38.65;100083.86;108012;1254;71151;-66
2023/06/13 01:28:47;;;;;;;7.10;2.50;;;;;;;23.35;38.05;100086.09;107930;1259;73209;-67
2023/06/13 01:31:15;;;;;;;5.10;2.90;;;;;;;23.48;37.84;100080.91;107708;1254;72655;-66
2023/06/13 01:33:43;;;;;;;7.10;2.80;;;;;;;23.29;38.20;100080.17;107770;1256;61820;-66
2023/06/13 01:36:19;;;;;;;10.10;3.20;;;;;;;23.21;38.25;100075.31;107979;1254;60447;-67
2023/06/13 01:38:46;;;;;;;4.90;2.80;;;;;;;23.01;38.64;100077.34;107913;1254;73672;-66
2023/06/13 01:41:13;;;;;;;6.70;2.90;;;;;;;23.03;38.70;100074.83;107826;1254;70138;-65
2023/06/13 01:43:40;;;;;;;5.20;3.00;;;;;;;23.01;38.60;100081.27;107859;1256;71456;-66
2023/06/13 01:46:23;;;;;;;5.80;2.40;;;;;;;22.91;38.60;100085.86;107847;1257;60908;-66
2023/06/13 01:49:19;;;;;;;9.10;2.80;;;;;;;22.79;38.79;100084.99;107851;1254;60078;-66
2023/06/13 01:52:18;;;;;;;8.10;2.70;;;;;;;22.65;39.02;100090.85;107829;1254;73024;-66
2023/06/13 01:54:52;;;;;;;13.80;3.20;;;;;;;22.89;38.82;100085.55;107849;1254;71303;-65
2023/06/13 01:57:25;;;;;;;7.80;3.60;;;;;;;22.95;38.69;100083.02;107898;1257;72470;-67
2023/06/13 01:59:55;;;;;;;11.20;2.90;;;;;;;22.66;38.85;100088.46;107866;1254;60440;-68
2023/06/13 02:02:23;;;;;;;5.70;2.80;;;;;;;22.82;38.56;100086.54;107835;1254;59978;-67
2023/06/13 02:04:53;;;;;;;4.60;2.60;;;;;;;22.97;38.40;100084.48;107912;1254;72196;-67
2023/06/13 02:07:20;;;;;;;4.70;2.60;;;;;;;23.02;38.25;100080.60;107837;1254;69298;-67
2023/06/13 02:09:48;;;;;;;9.50;2.80;;;;;;;23.15;37.96;100078.52;107850;1256;72653;-68
2023/06/13 02:12:17;;;;;;;6.80;2.50;;;;;;;22.99;38.14;100081.27;107872;1257;61753;-66
2023/06/13 02:14:44;;;;;;;10.40;2.80;;;;;;;22.81;38.32;100083.56;107739;1254;60263;-68
2023/06/13 02:17:12;;;;;;;5.10;2.70;;;;;;;22.86;38.38;100084.01;107733;1254;71780;-66
2023/06/13 02:19:39;;;;;;;10.30;2.20;;;;;;;22.95;38.13;100081.78;107873;1254;69165;-64
2023/06/13 02:22:07;;;;;;;4.50;2.50;;;;;;;23.04;38.18;100083.48;107854;1254;73081;-68
2023/06/13 02:24:35;;;;;;;4.10;2.80;;;;;;;22.96;38.05;100084.52;107861;1256;61838;-66
2023/06/13 02:27:11;;;;;;;9.90;3.20;;;;;;;22.85;38.34;100088.86;107861;1254;60342;-66
2023/06/13 02:29:38;;;;;;;5.20;3.00;;;;;;;22.85;38.31;100096.77;107891;1254;76325;-67
2023/06/13 02:32:08;;;;;;;9.10;2.80;;;;;;;22.81;38.39;100097.45;107988;1254;70113;-66
2023/06/13 02:34:36;;;;;;;9.60;2.80;;;;;;;22.83;38.56;100096.73;107974;1254;72895;-65
2023/06/13 02:37:05;;;;;;;4.60;2.70;;;;;;;22.98;38.24;100092.11;107991;1254;60432;-65
2023/06/13 02:39:35;;;;;;;4.60;2.80;;;;;;;23.03;38.00;100091.80;107999;1254;58780;-66
2023/06/13 02:42:03;;;;;;;6.90;2.70;;;;;;;23.08;38.12;100090.68;108063;1259;72569;-67
2023/06/13 02:44:33;;;;;;;7.90;3.00;;;;;;;23.09;38.04;100095.39;108122;1254;70141;-66
2023/06/13 02:47:00;;;;;;;6.20;3.00;;;;;;;23.00;38.18;100094.25;107879;1254;72246;-65
2023/06/13 02:49:27;;;;;;;8.30;3.10;;;;;;;22.87;38.29;100098.39;108011;1254;60475;-65
2023/06/13 02:51:54;;;;;;;5.80;2.80;;;;;;;22.76;38.25;100098.27;108008;1254;60326;-65
2023/06/13 02:54:27;;;;;;;8.70;3.00;;;;;;;22.87;38.14;100100.63;107936;1254;73835;-65
2023/06/13 02:56:54;;;;;;;5.60;2.70;;;;;;;22.97;38.14;100098.58;107896;1254;70387;-66
2023/06/13 02:59:22;;;;;;;8.00;3.10;;;;;;;23.00;38.09;100095.13;108043;1254;71007;-65
2023/06/13 03:01:50;;;;;;;9.50;2.60;;;;;;;22.95;38.33;100092.73;108111;1254;61784;-67
2023/06/13 03:04:18;;;;;;;5.00;2.90;;;;;;;22.98;38.43;100092.11;107968;1254;60399;-66
2023/06/13 03:06:46;;;;;;;6.20;2.30;;;;;;;23.18;37.90;100090.46;107889;1254;73818;-65
2023/06/13 03:09:19;;;;;;;9.20;3.10;;;;;;;23.25;37.84;100094.88;108026;1254;69966;-64
2023/06/13 03:11:46;;;;;;;9.20;3.10;;;;;;;23.27;37.69;100093.13;107994;1254;72832;-66
2023/06/13 03:14:13;;;;;;;12.60;3.10;;;;;;;23.29;37.81;100096.67;107915;1254;61674;-66
2023/06/13 03:16:41;;;;;;;3.00;2.60;;;;;;;23.19;37.94;100091.04;107982;1254;60331;-67
2023/06/13 03:19:08;;;;;;;3.80;2.40;;;;;;;23.23;38.05;100096.59;107930;1254;73087;-66
2023/06/13 03:21:35;;;;;;;5.50;2.80;;;;;;;23.34;37.88;100098.69;108007;1254;70001;-67
2023/06/13 03:24:06;;;;;;;8.90;2.90;;;;;;;23.52;37.66;100100.95;108013;1254;74113;-67
2023/06/13 03:26:37;;;;;;;9.40;2.90;;;;;;;23.63;37.48;100096.36;108085;1254;60767;-66
2023/06/13 03:29:11;;;;;;;5.60;2.50;;;;;;;23.42;37.63;100097.20;107976;1259;59386;-64
2023/06/13 03:31:39;;;;;;;10.60;2.80;;;;;;;23.42;37.62;100099.18;107979;1254;73839;-66
2023/06/13 03:34:07;;;;;;;7.90;2.90;;;;;;;23.54;37.58;100100.29;107904;1254;70162;-66
2023/06/13 03:36:37;;;;;;;4.60;2.60;;;;;;;23.53;37.57;100098.39;107939;1256;71317;-66
2023/06/13 03:39:05;;;;;;;6.90;2.50;;;;;;;23.67;37.51;100097.30;107860;1257;61221;-64
2023/06/13 03:41:33;;;;;;;7.60;3.30;;;;;;;23.75;37.51;100097.66;107882;1254;60355;-65
2023/06/13 03:44:02;;;;;;;5.00;2.40;;;;;;;23.74;37.51;100098.48;107935;1255;73943;-65
2023/06/13 03:46:29;;;;;;;3.70;2.50;;;;;;;23.87;37.18;100094.60;107650;1254;70548;-66
2023/06/13 03:48:57;;;;;;;7.10;2.80;;;;;;;23.79;36.96;100094.61;107870;1256;71717;-66
2023/06/13 03:51:24;;;;;;;6.80;2.90;;;;;;;23.75;36.93;100094.20;107990;1254;61160;-64
2023/06/13 03:53:52;;;;;;;5.90;3.00;;;;;;;23.66;37.09;100095.73;107936;1254;60641;-67
2023/06/13 03:56:22;;;;;;;7.70;3.00;;;;;;;23.65;36.86;100098.52;107852;1254;74250;-65
2023/06/13 03:58:52;;;;;;;5.70;2.80;;;;;;;23.70;36.66;100096.64;108014;1255;69924;-65
2023/06/13 04:01:19;;;;;;;7.40;3.00;;;;;;;23.74;36.70;100093.80;107949;1257;71397;-66
2023/06/13 04:03:47;;;;;;;6.10;3.00;;;;;;;23.84;36.57;100093.57;107787;1257;60470;-64
2023/06/13 04:06:16;;;;;;;7.70;2.90;;;;;;;23.90;36.51;100093.60;107841;1254;59984;-66
2023/06/13 04:08:43;;;;;;;5.60;3.50;;;;;;;23.94;36.61;100095.89;107921;1254;73872;-64
2023/06/13 04:11:16;;;;;;;8.50;3.00;;;;;;;24.10;36.65;100098.99;108008;1258;70642;-66
2023/06/13 04:13:43;;;;;;;8.40;3.00;;;;;;;24.21;36.43;100101.23;107990;1256;71341;-65
2023/06/13 04:16:10;;;;;;;7.50;2.70;;;;;;;24.15;36.05;100098.60;108038;1253;60360;-68
2023/06/13 04:18:39;;;;;;;7.10;2.50;;;;;;;24.24;36.40;100101.09;107873;1260;60433;-66
2023/06/13 04:21:08;;;;;;;5.40;2.70;;;;;;;24.62;35.94;100096.83;108037;1254;73922;-67
2023/06/13 04:23:37;;;;;;;5.50;2.50;;;;;;;24.73;35.54;100094.98;107955;1253;69092;-66
2023/06/13 04:26:05;;;;;;;13.30;3.40;;;;;;;25.00;35.06;100090.84;108091;1254;70992;-66
2023/06/13 04:28:33;;;;;;;5.80;2.60;;;;;;;25.09;34.56;100087.73;108075;1254;61647;-68
2023/06/13 04:31:03;;;;;;;9.10;3.00;;;;;;;25.17;34.57;100092.52;108081;1259;60167;-69
2023/06/13 04:33:33;;;;;;;7.20;2.80;;;;;;;25.21;34.15;100091.25;108018;1253;73849;-67
2023/06/13 04:36:05;;;;;;;5.80;2.80;;;;;;;25.13;34.43;100088.06;108038;1257;71296;-68
2023/06/13 04:38:39;;;;;;;4.90;2.50;;;;;;;25.32;34.03;100083.54;108046;1254;73031;-67
2023/06/13 04:41:13;;;;;;;8.50;2.90;;;;;;;25.44;34.03;100086.27;108200;1253;61863;-66
2023/06/13 04:43:41;;;;;;;5.30;2.70;;;;;;;25.54;33.67;100084.59;108134;1254;60310;-68
2023/06/13 04:46:09;;;;;;;8.30;3.10;;;;;;;25.61;33.51;100083.44;108169;1254;73870;-68
2023/06/13 04:48:40;;;;;;;;;;;;;;;25.52;33.68;100085.95;108207;1254;68855;-68
2023/06/13 04:51:09;;;;;;;7.20;3.50;;;;;;;25.97;33.06;100089.36;108177;1254;71375;-68
2023/06/13 04:53:37;;;;;;;8.10;3.20;;;;;;;26.33;32.76;100098.40;108094;1253;60376;-68
2023/06/13 04:56:06;;;;;;;5.70;3.40;;;;;;;26.42;32.18;100095.39;108217;1253;60194;-68
2023/06/13 04:58:33;;;;;;;7.30;3.50;;;;;;;26.36;32.00;100101.76;108136;1252;72654;-68
2023/06/13 05:01:02;;;;;;;17.30;3.80;;;;;;;26.35;32.00;100101.98;108133;1254;70737;-66
2023/06/13 05:03:30;;;;;;;10.20;3.20;;;;;;;26.49;31.65;100102.59;108130;1254;72548;-67
2023/06/13 05:05:57;;;;;;;14.80;3.50;;;;;;;26.63;31.83;100096.30;108155;1254;60487;-65
2023/06/13 05:08:26;;;;;;;9.30;3.40;;;;;;;26.64;31.50;100093.98;108235;1252;60392;-67
2023/06/13 05:10:53;;;;;;;9.10;3.40;;;;;;;26.89;31.24;100090.21;108160;1253;72761;-68
2023/06/13 05:13:21;;;;;;;4.30;3.50;;;;;;;27.16;31.08;100086.52;108125;1254;70891;-68
2023/06/13 05:15:48;;;;;;;8.00;3.50;;;;;;;27.44;30.76;100084.74;108139;1253;70665;-67
2023/06/13 05:18:17;;;;;;;9.10;3.20;;;;;;;27.82;30.42;100084.73;108187;1253;60434;-68
2023/06/13 05:20:45;;;;;;;11.40;3.40;;;;;;;28.27;29.81;100079.77;108226;1253;59027;-67
2023/06/13 05:23:13;;;;;;;5.30;3.40;;;;;;;28.73;29.43;100086.81;108140;1252;73458;-68
2023/06/13 05:25:41;;;;;;;4.00;2.80;;;;;;;28.87;29.02;100085.75;108172;1254;69553;-67
2023/06/13 05:28:08;;;;;;;9.10;3.30;;;;;;;28.69;28.87;100087.23;108130;1253;72733;-69
2023/06/13 05:30:36;;;;;;;8.50;3.40;;;;;;;28.49;28.74;100090.13;108080;1253;60508;-68
2023/06/13 05:33:05;;;;;;;11.90;3.90;;;;;;;28.41;28.87;100086.70;108105;1252;60488;-66
2023/06/13 05:35:33;;;;;;;8.90;3.70;;;;;;;28.19;29.08;100089.13;108163;1254;73889;-63
2023/06/13 05:38:18;;;;;;;6.90;3.40;;;;;;;28.15;29.08;100090.21;108056;1257;70218;-68
2023/06/13 05:40:47;;;;;;;6.50;3.60;;;;;;;28.28;28.95;100090.21;108144;1254;72947;-67
2023/06/13 05:43:19;;;;;;;5.80;3.20;;;;;;;28.60;28.78;100086.80;108111;1253;60348;-67
2023/06/13 05:45:47;;;;;;;7.50;3.80;;;;;;;28.96;28.66;100083.06;108123;1253;60367;-68
2023/06/13 05:48:16;;;;;;;6.30;3.50;;;;;;;29.05;28.20;100083.70;108075;1253;72620;-68
2023/06/13 05:50:43;;;;;;;7.40;3.30;;;;;;;29.07;28.17;100077.83;108142;1254;70398;-70
2023/06/13 05:53:11;;;;;;;8.10;3.60;;;;;;;29.66;27.83;100074.77;108124;1254;72687;-67
2023/06/13 05:55:41;;;;;;;6.30;3.60;;;;;;;29.70;27.40;100070.33;108140;1254;60407;-68
2023/06/13 05:58:09;;;;;;;12.60;4.60;;;;;;;29.93;27.13;100072.30;108155;1254;60628;-69
2023/06/13 06:00:40;;;;;;;14.30;4.60;;;;;;;30.11;27.20;100070.14;108097;1256;72690;-67
2023/06/13 06:03:08;;;;;;;10.00;5.60;;;;;;;30.47;27.06;100066.55;108116;1253;68835;-68
2023/06/13 06:05:38;;;;;;;7.70;5.10;;;;;;;30.42;26.52;100072.75;108136;1254;72499;-68
2023/06/13 06:08:05;;;;;;;8.20;4.60;;;;;;;30.23;27.03;100075.73;108102;1254;60821;-68
2023/06/13 06:10:37;;;;;;;11.40;5.00;;;;;;;29.94;26.82;100070.03;108074;1254;60296;-68
2023/06/13 06:13:05;;;;;;;12.30;5.20;;;;;;;29.93;27.00;100072.44;108032;1252;73871;-67
2023/06/13 06:15:32;;;;;;;8.80;5.20;;;;;;;29.78;27.16;100073.02;108056;1254;70048;-69
2023/06/13 06:17:59;;;;;;;6.90;4.80;;;;;;;29.81;27.41;100074.25;108016;1253;72831;-68
2023/06/13 06:20:29;;;;;;;6.80;4.40;;;;;;;29.61;27.10;100071.02;107998;1257;60526;-68
2023/06/13 06:22:57;;;;;;;7.80;4.40;;;;;;;29.57;26.98;100074.55;108070;1253;60382;-68
2023/06/13 06:25:25;;;;;;;10.50;4.40;;;;;;;29.42;27.15;100072.88;108111;1259;72594;-69
2023/06/13 06:27:53;;;;;;;6.20;4.00;;;;;;;29.43;27.48;100075.31;108024;1253;70266;-68
2023/06/13 06:30:20;;;;;;;9.70;5.10;;;;;;;29.63;27.27;100073.92;108053;1253;72722;-67
2023/06/13 06:32:48;;;;;;;8.70;4.40;;;;;;;29.37;27.41;100077.30;108143;1254;60415;-68
2023/06/13 06:35:15;;;;;;;10.10;4.50;;;;;;;29.45;27.57;100075.73;108065;1256;60342;-70
2023/06/13 06:37:43;;;;;;;10.50;4.70;;;;;;;29.45;27.16;100073.27;108047;1253;73859;-68
2023/06/13 06:40:12;;;;;;;8.00;4.20;;;;;;;29.63;27.65;100068.27;108158;1253;70331;-68
2023/06/13 06:42:43;;;;;;;7.40;4.20;;;;;;;29.57;27.47;100072.27;108037;1253;71312;-68
2023/06/13 06:45:12;;;;;;;6.70;4.20;;;;;;;29.50;27.31;100075.93;107911;1253;60427;-68
2023/06/13 06:47:44;;;;;;;6.10;3.60;;;;;;;29.31;27.56;100073.47;108018;1253;60381;-68
2023/06/13 06:50:12;;;;;;;7.40;4.00;;;;;;;29.11;27.48;100077.45;107973;1253;72673;-68
2023/06/13 06:52:42;;;;;;;9.50;4.60;;;;;;;29.05;27.83;100078.77;108009;1253;69280;-69
2023/06/13 06:55:09;;;;;;;6.00;4.00;;;;;;;29.01;27.71;100078.50;107966;1256;71336;-67
2023/06/13 06:57:36;;;;;;;10.80;4.30;;;;;;;28.80;27.73;100074.54;108024;1253;59997;-68
2023/06/13 07:00:05;;;;;;;6.50;4.60;;;;;;;28.84;27.80;100075.84;108044;1254;60422;-68
2023/06/13 07:02:33;;;;;;;8.00;4.30;;;;;;;28.98;27.35;100076.05;107973;1253;72532;-69
2023/06/13 07:05:00;;;;;;;6.10;4.10;;;;;;;29.13;27.28;100071.53;107790;1253;70178;-68
2023/06/13 07:07:32;;;;;;;8.40;4.80;;;;;;;29.33;27.29;100067.45;107969;1253;72914;-69
2023/06/13 07:09:59;;;;;;;9.70;4.60;;;;;;;29.70;26.75;100062.02;108006;1257;60299;-69
2023/06/13 07:12:33;;;;;;;18.90;5.70;;;;;;;30.03;26.53;100062.44;107972;1253;60122;-68
2023/06/13 07:15:01;;;;;;;12.40;4.90;;;;;;;30.07;26.30;100058.50;108038;1254;74263;-69
2023/06/13 07:17:30;;;;;;;6.10;3.70;;;;;;;29.91;26.18;100062.19;108052;1253;70013;-68
2023/06/13 07:19:57;;;;;;;8.90;3.70;;;;;;;29.87;26.21;100061.61;108032;1253;71913;-68
2023/06/13 07:22:25;;;;;;;7.90;3.70;;;;;;;30.01;26.30;100057.44;108015;1253;60313;-69
2023/06/13 07:24:52;;;;;;;6.40;3.70;;;;;;;30.19;25.95;100059.90;108022;1254;60328;-68
2023/06/13 07:27:19;;;;;;;6.40;3.00;;;;;;;30.02;25.94;100062.19;108045;1252;73940;-68
2023/06/13 07:29:49;;;;;;;5.10;2.80;;;;;;;30.05;26.04;100058.73;108095;1254;69180;-69
2023/06/13 07:32:16;;;;;;;3.90;3.30;;;;;;;30.04;26.08;100057.61;108078;1253;72761;-68
2023/06/13 07:34:44;;;;;;;8.50;3.20;;;;;;;29.85;26.27;100055.73;108036;1254;61001;-68
2023/06/13 07:37:31;;;;;;;7.90;2.60;;;;;;;30.16;26.10;100053.09;108095;1253;61410;-69
2023/06/13 07:39:59;;;;;;;8.30;3.60;;;;;;;30.68;25.94;100055.47;108081;1252;73908;-69
2023/06/13 07:42:26;;;;;;;9.00;3.00;;;;;;;30.94;25.55;100048.95;108088;1253;69543;-69
2023/06/13 07:44:56;;;;;;;6.40;3.50;;;;;;;31.43;25.18;100048.14;108039;1253;71485;-69
2023/06/13 07:47:25;;;;;;;8.50;2.80;;;;;;;32.06;24.69;100048.86;108047;1253;60614;-68
2023/06/13 07:49:52;;;;;;;8.20;3.80;;;;;;;31.99;24.23;100055.80;108044;1253;60383;-67
2023/06/13 07:52:30;;;;;;;6.10;3.10;;;;;;;31.62;24.82;100057.13;108051;1253;74294;-68
2023/06/13 07:54:58;;;;;;;7.60;3.30;;;;;;;31.40;24.92;100055.94;108069;1253;69029;-69
2023/06/13 07:57:26;;;;;;;10.10;3.20;;;;;;;31.30;24.80;100060.02;108033;1259;72622;-69
2023/06/13 07:59:56;;;;;;;5.70;3.10;;;;;;;30.83;25.50;100057.52;108062;1253;60315;-67
2023/06/13 08:02:31;;;;;;;5.70;2.90;;;;;;;30.93;25.33;100057.65;108044;1256;60588;-68
2023/06/13 08:04:58;;;;;;;9.60;3.50;;;;;;;30.34;25.94;100058.46;108060;1254;74834;-68
2023/06/13 08:07:27;;;;;;;5.40;3.30;;;;;;;30.44;26.20;100059.48;108065;1254;71708;-69
2023/06/13 08:09:54;;;;;;;7.60;3.80;;;;;;;30.25;25.89;100065.55;108108;1254;72478;-68
2023/06/13 08:12:22;;;;;;;8.80;4.00;;;;;;;30.00;26.13;100070.74;108026;1253;60328;-69
2023/06/13 08:14:51;;;;;;;8.20;4.10;;;;;;;29.74;26.52;100061.39;108106;1257;60527;-69
2023/06/13 08:17:19;;;;;;;5.00;3.00;;;;;;;30.09;26.15;100066.08;108094;1253;73976;-69
2023/06/13 08:19:50;;;;;;;6.10;3.50;;;;;;;30.06;26.04;100064.25;108141;1253;68836;-68
2023/06/13 08:22:17;;;;;;;7.50;3.50;;;;;;;30.19;26.16;100062.68;108042;1254;72025;-68
2023/06/13 08:24:45;;;;;;;10.00;4.20;;;;;;;30.31;26.02;100063.07;108074;1253;60277;-69
2023/06/13 08:27:16;;;;;;;6.60;3.80;;;;;;;30.20;26.21;100063.29;107984;1253;59189;-70
2023/06/13 08:29:44;;;;;;;6.50;3.70;;;;;;;30.42;26.24;100063.69;108059;1253;73779;-66
2023/06/13 08:32:11;;;;;;;17.20;4.20;;;;;;;30.60;26.05;100058.77;108010;1253;70375;-68
2023/06/13 08:34:41;;;;;;;4.30;3.20;;;;;;;30.76;25.85;100056.77;107827;1253;73625;-69
2023/06/13 08:37:11;;;;;;;10.00;4.00;;;;;;;31.02;25.55;100055.27;107986;1253;60272;-68
2023/06/13 08:39:38;;;;;;;6.40;3.30;;;;;;;30.94;25.27;100056.48;108062;1253;60684;-68
2023/06/13 08:42:12;;;;;;;11.20;3.50;;;;;;;31.29;25.47;100052.00;107897;1253;73981;-68
2023/06/13 08:44:39;;;;;;;5.20;3.40;;;;;;;31.62;25.22;100048.33;108006;1253;70559;-68
2023/06/13 08:47:08;;;;;;;8.70;4.00;;;;;;;31.75;25.06;100056.16;107832;1256;72750;-67
2023/06/13 08:49:53;;;;;;;9.30;3.30;;;;;;;31.60;24.82;100059.20;107988;1253;60409;-67
2023/06/13 08:52:23;;;;;;;6.60;3.80;;;;;;;31.61;24.94;100060.21;108059;1253;59027;-69
2023/06/13 08:54:53;;;;;;;7.80;3.80;;;;;;;31.41;25.03;100059.58;107952;1253;73875;-69
2023/06/13 08:57:41;;;;;;;5.70;3.40;;;;;;;31.32;25.21;100056.73;107818;1253;69028;-67
2023/06/13 09:00:15;;;;;;;10.10;3.60;;;;;;;31.60;25.27;100056.44;107960;1255;71891;-66
2023/06/13 09:02:45;;;;;;;5.50;3.30;;;;;;;32.14;24.90;100065.56;107971;1254;60261;-68
2023/06/13 09:05:15;;;;;;;8.50;3.90;;;;;;;32.17;24.35;100067.17;108034;1253;60293;-70
2023/06/13 09:07:44;;;;;;;;;;;;;;;32.14;24.68;100069.00;107849;1253;73837;-69
2023/06/13 09:10:12;;;;;;;7.70;3.60;;;;;;;31.76;24.76;100072.08;108089;1253;70084;-68
2023/06/13 09:12:43;;;;;;;10.00;4.40;;;;;;;31.68;24.79;100071.20;108048;1254;71258;-69
2023/06/13 09:15:13;;;;;;;6.20;3.60;;;;;;;31.30;24.68;100063.57;108024;1253;60421;-68
2023/06/13 09:17:43;;;;;;;5.50;3.30;;;;;;;30.84;25.44;100065.63;108050;1253;60331;-69
2023/06/13 09:20:11;;;;;;;5.90;3.90;;;;;;;31.07;25.66;100067.92;107815;1253;74050;-68
2023/06/13 09:22:39;;;;;;;4.70;3.30;;;;;;;30.99;25.32;100071.63;108061;1253;69363;-69
2023/06/13 09:25:09;;;;;;;7.50;3.70;;;;;;;31.28;25.31;100064.10;107924;1255;72467;-68
2023/06/13 09:27:36;;;;;;;7.50;3.70;;;;;;;31.46;25.21;100066.81;108036;1259;60489;-69
2023/06/13 09:30:05;;;;;;;5.60;4.00;;;;;;;31.22;25.34;100064.36;108127;1253;60323;-68
2023/06/13 09:32:32;;;;;;;8.00;4.00;;;;;;;30.87;25.66;100064.20;108106;1254;72177;-67
2023/06/13 09:35:02;;;;;;;8.10;3.30;;;;;;;30.49;25.83;100064.48;108186;1253;70349;-67
2023/06/13 09:37:32;;;;;;;6.50;4.10;;;;;;;30.54;26.03;100064.59;108093;1254;71440;-68
2023/06/13 09:40:03;;;;;;;8.00;3.60;;;;;;;30.53;26.18;100069.20;108098;1254;59171;-66
2023/06/13 09:42:50;;;;;;;7.90;3.70;;;;;;;30.83;25.68;100067.38;108115;1254;60409;-64
2023/06/13 09:45:31;;;;;;;8.30;3.60;;;;;;;31.04;25.63;100073.16;108031;1253;73822;-67
2023/06/13 09:47:58;;;;;;;5.00;4.20;;;;;;;31.16;25.69;100075.61;107853;1254;70417;-67
2023/06/13 09:50:29;;;;;;;10.10;3.80;;;;;;;31.16;25.35;100077.93;108101;1255;72824;-67
2023/06/13 09:52:57;;;;;;;7.60;3.50;;;;;;;31.02;25.24;100075.90;108045;1253;60431;-68
2023/06/13 09:55:24;;;;;;;7.90;4.30;;;;;;;31.15;25.58;100072.48;108075;1253;60332;-67
2023/06/13 09:57:52;;;;;;;6.70;3.80;;;;;;;31.35;25.42;100070.70;108079;1253;72555;-67
2023/06/13 10:00:39;;;;;;;5.80;3.60;;;;;;;31.48;25.46;100071.30;108054;1258;69521;-68
2023/06/13 10:03:09;;;;;;;9.60;4.20;;;;;;;31.50;25.02;100073.55;108007;1253;71362;-67
2023/06/13 10:05:47;;;;;;;8.40;3.90;;;;;;;31.46;24.80;100074.43;108021;1254;59339;-68
2023/06/13 10:08:15;;;;;;;6.20;4.20;;;;;;;31.27;24.98;100078.42;108046;1253;60053;-68
2023/06/13 10:10:42;;;;;;;5.70;4.30;;;;;;;31.26;24.99;100076.17;108037;1253;73809;-69
2023/06/13 10:13:15;;;;;;;6.60;4.10;;;;;;;31.05;25.18;100071.92;108060;1253;70252;-68
2023/06/13 10:15:49;;;;;;;8.20;4.20;;;;;;;31.09;25.35;100073.76;108027;1254;72675;-69
2023/06/13 10:18:21;;;;;;;6.90;4.10;;;;;;;31.24;25.31;100070.86;108069;1254;60328;-69
2023/06/13 10:20:48;;;;;;;8.00;3.80;;;;;;;31.33;25.52;100070.72;108085;1252;59154;-68
2023/06/13 10:23:18;;;;;;;7.40;4.20;;;;;;;31.34;25.49;100070.98;108082;1253;74285;-68
2023/06/13 10:27:54;;;;;;;8.50;4.10;;;;;;;28.70;28.30;100076.45;104904;1289;600884;-67
2023/06/13 10:30:32;;;;;;;10.40;4.30;;;;;;;30.08;26.91;100072.89;107286;1267;60050;-68
2023/06/13 10:33:27;;;;;;;9.60;5.10;;;;;;;30.53;26.48;100072.48;107229;1265;59255;-67
2023/06/13 10:36:16;;;;;;;8.70;4.30;;;;;;;30.64;26.10;100070.96;107266;1266;72104;-67
2023/06/13 10:39:28;;;;;;;7.20;4.60;;;;;;;30.31;26.27;100072.98;107186;1267;70739;-67
2023/06/13 10:42:28;;;;;;;8.60;4.60;;;;;;;30.44;26.19;100071.85;106967;1263;240521;-68
2023/06/13 10:44:55;;;;;;;9.50;4.90;;;;;;;30.32;26.38;100072.48;107254;1264;59218;-67
2023/06/13 10:47:22;;;;;;;11.50;4.60;;;;;;;29.98;26.77;100071.35;107320;1264;60048;-68
2023/06/13 10:49:54;;;;;;;9.00;4.60;;;;;;;30.03;27.11;100067.74;107327;1264;70651;-68
2023/06/13 10:52:21;;;;;;;13.70;5.40;;;;;;;30.20;27.06;100068.99;107303;1264;70847;-68
2023/06/13 10:54:53;;;;;;;14.00;5.00;;;;;;;30.31;26.63;100071.03;107278;1264;72625;-68
2023/06/13 10:57:21;;;;;;;13.50;4.80;;;;;;;30.20;26.60;100073.02;107342;1266;59149;-69
2023/06/13 10:59:49;;;;;;;10.90;4.40;;;;;;;30.37;26.58;100070.12;107339;1263;59958;-68
2023/06/13 11:02:17;;;;;;;8.70;4.40;;;;;;;30.54;26.39;100072.84;107322;1263;73470;-68
2023/06/13 11:04:52;;;;;;;11.60;4.40;;;;;;;30.60;26.48;100070.71;107382;1263;69238;-69
2023/06/13 11:07:24;;;;;;;8.80;4.00;;;;;;;30.62;26.38;100069.43;107421;1269;72668;-68
2023/06/13 11:10:01;;;;;;;10.70;4.90;;;;;;;30.69;26.38;100069.23;108191;1253;59679;-68
2023/06/13 11:12:31;;;;;;;7.50;4.40;;;;;;;30.44;26.24;100077.79;108169;1252;60528;-68
2023/06/13 11:14:59;;;;;;;10.00;5.00;;;;;;;30.07;26.43;100074.80;108161;1254;73093;-68
2023/06/13 11:17:27;;;;;;;8.90;4.30;;;;;;;29.88;26.75;100072.87;108143;1254;69981;-69
2023/06/13 11:19:56;;;;;;;9.50;4.90;;;;;;;29.52;27.29;100071.92;108161;1254;72411;-68
2023/06/13 11:22:26;;;;;;;7.30;4.50;;;;;;;29.63;27.24;100070.40;108156;1254;60082;-68
2023/06/13 11:24:56;;;;;;;8.40;4.90;;;;;;;29.74;27.26;100064.44;108145;1254;60144;-68
2023/06/13 11:27:26;;;;;;;12.90;4.80;;;;;;;29.76;27.30;100063.88;108151;1254;74255;-69
2023/06/13 11:29:54;;;;;;;9.10;4.10;;;;;;;29.49;27.65;100062.48;108071;1253;69234;-69
2023/06/13 11:32:22;;;;;;;9.40;4.80;;;;;;;29.35;27.74;100065.00;107942;1254;72681;-69